sensor_id;sensor_type;location;lat;lon;timestamp;pressure;altitude;pressure_sealevel;temperature;humidity
34235;BME280;20500;49.856;20.290;2022-12-18T00:00:57;100328.94;;;-3.87;79.27
34235;BME280;20500;49.856;20.290;2022-12-18T00:04:03;100336.62;;;-3.88;79.30
34235;BME280;20500;49.856;20.290;2022-12-18T00:07:08;100347.48;;;-3.94;79.17
34235;BME280;20500;49.856;20.290;2022-12-18T00:10:10;100351.31;;;-3.97;79.11
34235;BME280;20500;49.856;20.290;2022-12-18T00:13:17;100350.06;;;-3.96;79.29
34235;BME280;20500;49.856;20.290;2022-12-18T00:16:21;100351.67;;;-3.92;79.23
34235;BME280;20500;49.856;20.290;2022-12-18T00:19:25;100351.98;;;-3.95;79.13
34235;BME280;20500;49.856;20.290;2022-12-18T00:22:28;100355.08;;;-4.02;79.06
34235;BME280;20500;49.856;20.290;2022-12-18T00:25:33;100359.92;;;-4.03;79.26
34235;BME280;20500;49.856;20.290;2022-12-18T00:28:37;100367.66;;;-4.02;79.21
34235;BME280;20500;49.856;20.290;2022-12-18T00:31:40;100370.32;;;-4.02;79.09
34235;BME280;20500;49.856;20.290;2022-12-18T00:34:44;100373.02;;;-4.03;79.06
34235;BME280;20500;49.856;20.290;2022-12-18T00:37:47;100377.04;;;-4.02;79.32
34235;BME280;20500;49.856;20.290;2022-12-18T00:40:49;100379.31;;;-4.01;79.16
34235;BME280;20500;49.856;20.290;2022-12-18T00:43:52;100384.42;;;-4.05;79.09
34235;BME280;20500;49.856;20.290;2022-12-18T00:46:55;100392.86;;;-4.07;79.08
34235;BME280;20500;49.856;20.290;2022-12-18T00:49:58;100394.39;;;-4.06;79.13
34235;BME280;20500;49.856;20.290;2022-12-18T00:53:01;100400.00;;;-4.04;79.30
34235;BME280;20500;49.856;20.290;2022-12-18T00:56:04;100399.19;;;-4.01;79.06
34235;BME280;20500;49.856;20.290;2022-12-18T00:59:07;100411.74;;;-4.00;79.23
34235;BME280;20500;49.856;20.290;2022-12-18T01:02:10;100414.09;;;-3.97;79.09
34235;BME280;20500;49.856;20.290;2022-12-18T01:05:14;100414.75;;;-3.95;79.03
34235;BME280;20500;49.856;20.290;2022-12-18T01:08:16;100415.46;;;-3.96;79.04
34235;BME280;20500;49.856;20.290;2022-12-18T01:11:21;100415.46;;;-3.96;79.23
34235;BME280;20500;49.856;20.290;2022-12-18T01:14:24;100416.10;;;-3.94;79.09
34235;BME280;20500;49.856;20.290;2022-12-18T01:17:26;100419.80;;;-3.93;79.12
34235;BME280;20500;49.856;20.290;2022-12-18T01:20:29;100422.91;;;-3.91;79.18
34235;BME280;20500;49.856;20.290;2022-12-18T01:23:32;100427.68;;;-3.95;79.17
34235;BME280;20500;49.856;20.290;2022-12-18T01:26:35;100431.13;;;-3.97;78.98
34235;BME280;20500;49.856;20.290;2022-12-18T01:29:37;100436.77;;;-3.96;79.06
34235;BME280;20500;49.856;20.290;2022-12-18T01:32:40;100439.57;;;-3.90;79.13
34235;BME280;20500;49.856;20.290;2022-12-18T01:35:43;100439.05;;;-3.86;79.16
34235;BME280;20500;49.856;20.290;2022-12-18T01:38:48;100438.93;;;-3.83;79.36
34235;BME280;20500;49.856;20.290;2022-12-18T01:41:51;100442.25;;;-3.77;79.19
34235;BME280;20500;49.856;20.290;2022-12-18T01:45:23;100442.98;;;-3.78;79.08
34235;BME280;20500;49.856;20.290;2022-12-18T01:48:26;100446.27;;;-3.80;78.95
34235;BME280;20500;49.856;20.290;2022-12-18T01:51:30;100448.55;;;-3.83;79.19
34235;BME280;20500;49.856;20.290;2022-12-18T01:54:33;100455.05;;;-3.83;79.05
34235;BME280;20500;49.856;20.290;2022-12-18T01:57:36;100461.02;;;-3.81;79.00
34235;BME280;20500;49.856;20.290;2022-12-18T02:00:40;100470.95;;;-3.80;78.93
34235;BME280;20500;49.856;20.290;2022-12-18T02:03:44;100475.69;;;-3.84;79.09
34235;BME280;20500;49.856;20.290;2022-12-18T02:06:49;100473.47;;;-3.86;78.99
34235;BME280;20500;49.856;20.290;2022-12-18T02:09:59;100476.39;;;-3.88;78.96
34235;BME280;20500;49.856;20.290;2022-12-18T02:13:08;100473.80;;;-3.91;78.87
34235;BME280;20500;49.856;20.290;2022-12-18T02:16:20;100477.21;;;-3.92;79.02
34235;BME280;20500;49.856;20.290;2022-12-18T02:19:50;100481.30;;;-3.92;78.95
34235;BME280;20500;49.856;20.290;2022-12-18T02:23:09;100487.75;;;-3.94;79.06
34235;BME280;20500;49.856;20.290;2022-12-18T02:26:19;100494.23;;;-3.97;78.88
34235;BME280;20500;49.856;20.290;2022-12-18T02:29:25;100495.29;;;-4.01;78.99
34235;BME280;20500;49.856;20.290;2022-12-18T02:32:31;100499.11;;;-4.04;78.84
34235;BME280;20500;49.856;20.290;2022-12-18T02:35:37;100502.64;;;-4.03;78.95
34235;BME280;20500;49.856;20.290;2022-12-18T02:38:42;100505.61;;;-4.02;79.13
34235;BME280;20500;49.856;20.290;2022-12-18T02:41:47;100509.45;;;-4.01;78.99
34235;BME280;20500;49.856;20.290;2022-12-18T02:44:51;100509.60;;;-3.99;78.89
34235;BME280;20500;49.856;20.290;2022-12-18T02:47:54;100512.40;;;-3.99;78.99
34235;BME280;20500;49.856;20.290;2022-12-18T02:51:03;100515.14;;;-3.96;79.01
34235;BME280;20500;49.856;20.290;2022-12-18T02:54:16;100520.70;;;-3.93;79.00
34235;BME280;20500;49.856;20.290;2022-12-18T02:57:33;100528.67;;;-3.93;78.96
34235;BME280;20500;49.856;20.290;2022-12-18T03:00:40;100530.67;;;-3.94;79.03
34235;BME280;20500;49.856;20.290;2022-12-18T03:03:47;100534.86;;;-3.92;79.06
34235;BME280;20500;49.856;20.290;2022-12-18T03:06:55;100540.00;;;-3.87;79.07
34235;BME280;20500;49.856;20.290;2022-12-18T03:10:01;100545.89;;;-3.83;79.07
34235;BME280;20500;49.856;20.290;2022-12-18T03:13:06;100545.14;;;-3.82;79.01
34235;BME280;20500;49.856;20.290;2022-12-18T03:16:14;100543.63;;;-3.80;78.96
34235;BME280;20500;49.856;20.290;2022-12-18T03:19:21;100547.63;;;-3.77;79.09
34235;BME280;20500;49.856;20.290;2022-12-18T03:22:27;100551.45;;;-3.75;79.04
34235;BME280;20500;49.856;20.290;2022-12-18T03:25:33;100553.08;;;-3.76;78.87
34235;BME280;20500;49.856;20.290;2022-12-18T03:28:42;100555.25;;;-3.82;78.72
34235;BME280;20500;49.856;20.290;2022-12-18T03:31:51;100560.70;;;-3.85;78.84
34235;BME280;20500;49.856;20.290;2022-12-18T03:34:59;100565.30;;;-3.90;78.87
34235;BME280;20500;49.856;20.290;2022-12-18T03:38:05;100568.08;;;-3.94;78.82
34235;BME280;20500;49.856;20.290;2022-12-18T03:41:15;100566.84;;;-3.94;78.79
34235;BME280;20500;49.856;20.290;2022-12-18T03:44:23;100566.83;;;-3.94;78.84
34235;BME280;20500;49.856;20.290;2022-12-18T03:47:31;100570.77;;;-3.95;78.89
34235;BME280;20500;49.856;20.290;2022-12-18T03:50:41;100570.73;;;-3.94;78.90
34235;BME280;20500;49.856;20.290;2022-12-18T03:53:52;100578.83;;;-3.92;78.87
34235;BME280;20500;49.856;20.290;2022-12-18T03:56:59;100584.27;;;-3.90;78.92
34235;BME280;20500;49.856;20.290;2022-12-18T04:00:07;100589.05;;;-3.89;78.83
34235;BME280;20500;49.856;20.290;2022-12-18T04:03:11;100588.86;;;-3.89;78.87
34235;BME280;20500;49.856;20.290;2022-12-18T04:06:16;100587.38;;;-3.93;78.70
34235;BME280;20500;49.856;20.290;2022-12-18T04:09:20;100590.77;;;-3.93;78.73
34235;BME280;20500;49.856;20.290;2022-12-18T04:12:26;100594.48;;;-3.93;78.80
34235;BME280;20500;49.856;20.290;2022-12-18T04:15:29;100599.25;;;-3.93;78.72
34235;BME280;20500;49.856;20.290;2022-12-18T04:18:32;100604.02;;;-3.92;78.78
34235;BME280;20500;49.856;20.290;2022-12-18T04:21:34;100603.73;;;-3.94;78.63
34235;BME280;20500;49.856;20.290;2022-12-18T04:24:37;100608.52;;;-3.94;78.64
34235;BME280;20500;49.856;20.290;2022-12-18T04:27:40;100611.49;;;-3.93;78.74
34235;BME280;20500;49.856;20.290;2022-12-18T04:30:43;100617.98;;;-3.90;78.83
34235;BME280;20500;49.856;20.290;2022-12-18T04:33:46;100623.95;;;-3.88;78.53
34235;BME280;20500;49.856;20.290;2022-12-18T04:36:49;100626.10;;;-3.89;78.62
34235;BME280;20500;49.856;20.290;2022-12-18T04:39:51;100630.89;;;-3.89;78.52
34235;BME280;20500;49.856;20.290;2022-12-18T04:42:54;100636.41;;;-3.90;78.65
34235;BME280;20500;49.856;20.290;2022-12-18T04:46:03;100639.73;;;-3.88;78.71
34235;BME280;20500;49.856;20.290;2022-12-18T04:49:06;100645.02;;;-3.87;78.63
34235;BME280;20500;49.856;20.290;2022-12-18T04:52:09;100646.16;;;-3.90;78.69
34235;BME280;20500;49.856;20.290;2022-12-18T04:55:12;100646.84;;;-3.89;78.65
34235;BME280;20500;49.856;20.290;2022-12-18T04:58:15;100653.52;;;-3.87;78.68
34235;BME280;20500;49.856;20.290;2022-12-18T05:01:18;100661.31;;;-3.87;78.58
34235;BME280;20500;49.856;20.290;2022-12-18T05:04:21;100666.52;;;-3.89;78.51
34235;BME280;20500;49.856;20.290;2022-12-18T05:07:25;100667.10;;;-3.90;78.60
34235;BME280;20500;49.856;20.290;2022-12-18T05:10:27;100670.15;;;-3.91;78.49
34235;BME280;20500;49.856;20.290;2022-12-18T05:13:38;100672.94;;;-3.95;78.50
34235;BME280;20500;49.856;20.290;2022-12-18T05:16:42;100675.69;;;-3.98;78.60
34235;BME280;20500;49.856;20.290;2022-12-18T05:19:45;100674.34;;;-3.99;78.61
34235;BME280;20500;49.856;20.290;2022-12-18T05:22:48;100676.35;;;-4.02;78.45
34235;BME280;20500;49.856;20.290;2022-12-18T05:25:52;100673.75;;;-4.03;78.39
34235;BME280;20500;49.856;20.290;2022-12-18T05:28:55;100670.77;;;-4.04;78.65
34235;BME280;20500;49.856;20.290;2022-12-18T05:31:58;100672.75;;;-4.06;78.64
34235;BME280;20500;49.856;20.290;2022-12-18T05:35:01;100676.81;;;-4.05;78.55
34235;BME280;20500;49.856;20.290;2022-12-18T05:38:04;100674.45;;;-4.03;78.56
34235;BME280;20500;49.856;20.290;2022-12-18T05:41:08;100673.73;;;-4.03;78.63
34235;BME280;20500;49.856;20.290;2022-12-18T05:44:11;100672.45;;;-4.02;78.64
34235;BME280;20500;49.856;20.290;2022-12-18T05:47:14;100677.20;;;-4.01;78.45
34235;BME280;20500;49.856;20.290;2022-12-18T05:50:17;100681.03;;;-3.98;78.50
34235;BME280;20500;49.856;20.290;2022-12-18T05:53:21;100687.25;;;-3.99;78.52
34235;BME280;20500;49.856;20.290;2022-12-18T05:56:23;100691.73;;;-4.00;78.50
34235;BME280;20500;49.856;20.290;2022-12-18T05:59:27;100697.86;;;-3.98;78.54
34235;BME280;20500;49.856;20.290;2022-12-18T06:02:29;100698.27;;;-3.94;78.50
34235;BME280;20500;49.856;20.290;2022-12-18T06:05:35;100699.83;;;-3.94;78.50
34235;BME280;20500;49.856;20.290;2022-12-18T06:08:39;100701.45;;;-3.95;78.40
34235;BME280;20500;49.856;20.290;2022-12-18T06:11:48;100702.50;;;-3.94;78.42
34235;BME280;20500;49.856;20.290;2022-12-18T06:14:50;100705.63;;;-3.91;78.42
34235;BME280;20500;49.856;20.290;2022-12-18T06:17:53;100714.06;;;-3.89;78.47
34235;BME280;20500;49.856;20.290;2022-12-18T06:20:57;100716.04;;;-3.90;78.51
34235;BME280;20500;49.856;20.290;2022-12-18T06:24:00;100723.08;;;-3.88;78.45
34235;BME280;20500;49.856;20.290;2022-12-18T06:27:03;100727.17;;;-3.88;78.25
34235;BME280;20500;49.856;20.290;2022-12-18T06:30:10;100727.99;;;-3.92;78.25
34235;BME280;20500;49.856;20.290;2022-12-18T06:33:12;100727.69;;;-3.94;78.22
34235;BME280;20500;49.856;20.290;2022-12-18T06:36:15;100733.57;;;-3.95;78.25
34235;BME280;20500;49.856;20.290;2022-12-18T06:39:18;100739.08;;;-3.96;78.34
34235;BME280;20500;49.856;20.290;2022-12-18T06:42:21;100741.47;;;-3.92;78.50
34235;BME280;20500;49.856;20.290;2022-12-18T06:45:24;100744.05;;;-3.90;78.35
34235;BME280;20500;49.856;20.290;2022-12-18T06:48:27;100747.55;;;-3.88;78.47
34235;BME280;20500;49.856;20.290;2022-12-18T06:51:30;100752.17;;;-3.88;78.41
34235;BME280;20500;49.856;20.290;2022-12-18T06:54:32;100755.77;;;-3.84;78.44
34235;BME280;20500;49.856;20.290;2022-12-18T06:57:35;100756.46;;;-3.79;78.36
34235;BME280;20500;49.856;20.290;2022-12-18T07:00:38;100763.10;;;-3.76;78.35
34235;BME280;20500;49.856;20.290;2022-12-18T07:03:42;100767.78;;;-3.72;78.32
34235;BME280;20500;49.856;20.290;2022-12-18T07:06:46;100772.97;;;-3.68;78.48
34235;BME280;20500;49.856;20.290;2022-12-18T07:09:50;100777.27;;;-3.64;78.38
34235;BME280;20500;49.856;20.290;2022-12-18T07:12:53;100785.08;;;-3.59;78.61
34235;BME280;20500;49.856;20.290;2022-12-18T07:15:56;100789.48;;;-3.53;78.46
34235;BME280;20500;49.856;20.290;2022-12-18T07:19:05;100790.27;;;-3.49;78.50
34235;BME280;20500;49.856;20.290;2022-12-18T07:22:07;100796.66;;;-3.50;78.41
34235;BME280;20500;49.856;20.290;2022-12-18T07:25:10;100800.59;;;-3.50;78.45
34235;BME280;20500;49.856;20.290;2022-12-18T07:28:13;100800.95;;;-3.51;78.47
34235;BME280;20500;49.856;20.290;2022-12-18T07:31:21;100809.39;;;-3.48;78.54
34235;BME280;20500;49.856;20.290;2022-12-18T07:34:24;100812.88;;;-3.46;78.44
34235;BME280;20500;49.856;20.290;2022-12-18T07:37:27;100816.01;;;-3.44;78.15
34235;BME280;20500;49.856;20.290;2022-12-18T07:40:30;100820.70;;;-3.41;78.22
34235;BME280;20500;49.856;20.290;2022-12-18T07:43:33;100825.01;;;-3.37;78.25
34235;BME280;20500;49.856;20.290;2022-12-18T07:46:36;100832.38;;;-3.34;78.26
34235;BME280;20500;49.856;20.290;2022-12-18T07:49:39;100835.97;;;-3.30;78.42
34235;BME280;20500;49.856;20.290;2022-12-18T07:52:42;100839.23;;;-3.27;78.48
34235;BME280;20500;49.856;20.290;2022-12-18T07:55:45;100837.69;;;-3.18;78.53
34235;BME280;20500;49.856;20.290;2022-12-18T07:59:08;100842.13;;;-3.08;78.23
34235;BME280;20500;49.856;20.290;2022-12-18T08:02:11;100841.05;;;-3.03;78.14
34235;BME280;20500;49.856;20.290;2022-12-18T08:05:14;100836.25;;;-2.97;78.26
34235;BME280;20500;49.856;20.290;2022-12-18T08:08:17;100838.64;;;-2.89;78.38
34235;BME280;20500;49.856;20.290;2022-12-18T08:11:20;100842.39;;;-2.85;78.35
34235;BME280;20500;49.856;20.290;2022-12-18T08:14:23;100842.40;;;-2.80;78.20
34235;BME280;20500;49.856;20.290;2022-12-18T08:17:26;100847.17;;;-2.74;78.24
34235;BME280;20500;49.856;20.290;2022-12-18T08:20:29;100842.77;;;-2.65;78.29
34235;BME280;20500;49.856;20.290;2022-12-18T08:23:31;100843.52;;;-2.57;78.33
34235;BME280;20500;49.856;20.290;2022-12-18T08:26:34;100853.44;;;-2.51;78.14
34235;BME280;20500;49.856;20.290;2022-12-18T08:29:37;100857.88;;;-2.46;78.06
34235;BME280;20500;49.856;20.290;2022-12-18T08:32:40;100859.55;;;-2.38;78.12
34235;BME280;20500;49.856;20.290;2022-12-18T08:35:43;100858.30;;;-2.33;78.07
34235;BME280;20500;49.856;20.290;2022-12-18T08:38:48;100864.21;;;-2.25;78.03
34235;BME280;20500;49.856;20.290;2022-12-18T08:41:50;100866.48;;;-2.14;78.19
34235;BME280;20500;49.856;20.290;2022-12-18T08:45:12;100864.98;;;-2.03;78.17
34235;BME280;20500;49.856;20.290;2022-12-18T08:48:15;100865.52;;;-1.98;78.06
34235;BME280;20500;49.856;20.290;2022-12-18T08:51:24;100868.89;;;-1.93;78.07
34235;BME280;20500;49.856;20.290;2022-12-18T08:54:27;100869.57;;;-1.87;78.03
34235;BME280;20500;49.856;20.290;2022-12-18T08:57:30;100871.66;;;-1.82;78.10
34235;BME280;20500;49.856;20.290;2022-12-18T09:00:32;100874.17;;;-1.77;77.92
34235;BME280;20500;49.856;20.290;2022-12-18T09:03:36;100879.35;;;-1.74;77.72
34235;BME280;20500;49.856;20.290;2022-12-18T09:06:39;100889.67;;;-1.69;77.75
34235;BME280;20500;49.856;20.290;2022-12-18T09:09:43;100891.66;;;-1.61;77.88
34235;BME280;20500;49.856;20.290;2022-12-18T09:12:45;100893.77;;;-1.51;77.72
34235;BME280;20500;49.856;20.290;2022-12-18T09:15:51;100890.98;;;-1.43;77.76
34235;BME280;20500;49.856;20.290;2022-12-18T09:18:56;100895.98;;;-1.35;77.56
34235;BME280;20500;49.856;20.290;2022-12-18T09:22:02;100899.16;;;-1.30;77.47
34235;BME280;20500;49.856;20.290;2022-12-18T09:25:06;100899.88;;;-1.26;77.54
34235;BME280;20500;49.856;20.290;2022-12-18T09:28:12;100901.38;;;-1.23;77.45
34235;BME280;20500;49.856;20.290;2022-12-18T09:31:16;100906.95;;;-1.20;77.42
34235;BME280;20500;49.856;20.290;2022-12-18T09:34:19;100904.05;;;-1.14;77.34
34235;BME280;20500;49.856;20.290;2022-12-18T09:37:24;100903.41;;;-1.08;77.36
34235;BME280;20500;49.856;20.290;2022-12-18T09:40:32;100902.45;;;-1.02;77.19
34235;BME280;20500;49.856;20.290;2022-12-18T09:43:40;100897.13;;;-0.98;77.11
34235;BME280;20500;49.856;20.290;2022-12-18T09:46:47;100893.84;;;-0.96;77.01
34235;BME280;20500;49.856;20.290;2022-12-18T09:49:55;100892.52;;;-0.90;77.06
34235;BME280;20500;49.856;20.290;2022-12-18T09:53:04;100896.73;;;-0.88;76.87
34235;BME280;20500;49.856;20.290;2022-12-18T09:56:15;100896.55;;;-0.88;76.92
34235;BME280;20500;49.856;20.290;2022-12-18T09:59:23;100896.36;;;-0.88;76.76
34235;BME280;20500;49.856;20.290;2022-12-18T10:02:29;100897.87;;;-1.03;76.24
34235;BME280;20500;49.856;20.290;2022-12-18T10:05:39;100903.30;;;-1.18;76.24
34235;BME280;20500;49.856;20.290;2022-12-18T10:08:50;100902.56;;;-1.35;75.93
34235;BME280;20500;49.856;20.290;2022-12-18T10:12:02;100899.89;;;-1.53;76.02
34235;BME280;20500;49.856;20.290;2022-12-18T10:15:15;100895.36;;;-1.73;75.72
34235;BME280;20500;49.856;20.290;2022-12-18T10:18:28;100890.65;;;-1.89;75.81
34235;BME280;20500;49.856;20.290;2022-12-18T10:21:42;100887.81;;;-1.99;75.87
34235;BME280;20500;49.856;20.290;2022-12-18T10:24:55;100886.10;;;-2.06;75.82
34235;BME280;20500;49.856;20.290;2022-12-18T10:28:09;100887.66;;;-2.10;75.89
34235;BME280;20500;49.856;20.290;2022-12-18T10:31:17;100887.21;;;-2.12;75.89
34235;BME280;20500;49.856;20.290;2022-12-18T10:34:20;100889.16;;;-2.16;75.67
34235;BME280;20500;49.856;20.290;2022-12-18T10:37:24;100893.02;;;-2.25;75.56
34235;BME280;20500;49.856;20.290;2022-12-18T10:40:27;100894.28;;;-2.30;75.58
34235;BME280;20500;49.856;20.290;2022-12-18T10:43:32;100893.05;;;-2.30;75.66
34235;BME280;20500;49.856;20.290;2022-12-18T10:46:35;100887.74;;;-2.31;75.68
34235;BME280;20500;49.856;20.290;2022-12-18T10:49:46;100885.92;;;-2.30;75.68
34235;BME280;20500;49.856;20.290;2022-12-18T10:52:57;100878.98;;;-2.30;75.66
34235;BME280;20500;49.856;20.290;2022-12-18T10:56:00;100876.27;;;-2.33;75.39
34235;BME280;20500;49.856;20.290;2022-12-18T10:59:06;100869.02;;;-2.34;75.45
34235;BME280;20500;49.856;20.290;2022-12-18T11:02:26;100866.77;;;-2.31;75.60
34235;BME280;20500;49.856;20.290;2022-12-18T11:05:31;100872.07;;;-2.25;75.63
34235;BME280;20500;49.856;20.290;2022-12-18T11:08:35;100872.45;;;-2.17;75.72
34235;BME280;20500;49.856;20.290;2022-12-18T11:11:38;100873.94;;;-2.04;75.56
34235;BME280;20500;49.856;20.290;2022-12-18T11:14:46;100874.65;;;-1.90;75.66
34235;BME280;20500;49.856;20.290;2022-12-18T11:17:51;100876.15;;;-1.74;75.75
34235;BME280;20500;49.856;20.290;2022-12-18T11:20:57;100872.85;;;-1.67;75.35
34235;BME280;20500;49.856;20.290;2022-12-18T11:24:01;100869.13;;;-1.58;75.51
34235;BME280;20500;49.856;20.290;2022-12-18T11:27:05;100867.58;;;-1.41;75.70
34235;BME280;20500;49.856;20.290;2022-12-18T11:30:24;100858.66;;;-1.24;75.44
34235;BME280;20500;49.856;20.290;2022-12-18T11:33:27;100856.81;;;-1.10;75.53
34235;BME280;20500;49.856;20.290;2022-12-18T11:36:33;100854.91;;;-0.94;75.53
34235;BME280;20500;49.856;20.290;2022-12-18T11:39:41;100848.69;;;-0.78;75.54
34235;BME280;20500;49.856;20.290;2022-12-18T11:42:51;100848.21;;;-0.67;75.50
34235;BME280;20500;49.856;20.290;2022-12-18T11:46:00;100850.59;;;-0.57;75.38
34235;BME280;20500;49.856;20.290;2022-12-18T11:49:10;100849.58;;;-0.45;75.24
34235;BME280;20500;49.856;20.290;2022-12-18T11:52:18;100846.33;;;-0.44;74.99
34235;BME280;20500;49.856;20.290;2022-12-18T11:55:30;100854.69;;;-0.48;74.74
34235;BME280;20500;49.856;20.290;2022-12-18T11:58:44;100868.10;;;-0.49;74.86
34235;BME280;20500;49.856;20.290;2022-12-18T12:01:51;100871.97;;;-0.47;74.83
34235;BME280;20500;49.856;20.290;2022-12-18T12:05:13;100868.96;;;-0.44;74.89
34235;BME280;20500;49.856;20.290;2022-12-18T12:08:28;100876.73;;;-0.51;74.65
34235;BME280;20500;49.856;20.290;2022-12-18T12:11:44;100877.33;;;-0.64;74.35
34235;BME280;20500;49.856;20.290;2022-12-18T12:15:00;100880.23;;;-0.82;74.28
34235;BME280;20500;49.856;20.290;2022-12-18T12:18:13;100878.35;;;-1.01;74.27
34235;BME280;20500;49.856;20.290;2022-12-18T12:21:23;100878.73;;;-1.10;74.27
34235;BME280;20500;49.856;20.290;2022-12-18T12:24:39;100875.54;;;-1.14;74.44
34235;BME280;20500;49.856;20.290;2022-12-18T12:27:57;100879.33;;;-1.15;74.35
34235;BME280;20500;49.856;20.290;2022-12-18T12:31:10;100879.47;;;-1.19;74.17
34235;BME280;20500;49.856;20.290;2022-12-18T12:34:19;100877.36;;;-1.24;74.11
34235;BME280;20500;49.856;20.290;2022-12-18T12:37:34;100878.04;;;-1.36;73.98
34235;BME280;20500;49.856;20.290;2022-12-18T12:40:46;100880.87;;;-1.45;73.98
34235;BME280;20500;49.856;20.290;2022-12-18T12:44:05;100884.35;;;-1.61;73.85
34235;BME280;20500;49.856;20.290;2022-12-18T12:47:13;100890.16;;;-1.63;74.06
34235;BME280;20500;49.856;20.290;2022-12-18T12:50:20;100897.34;;;-1.69;73.92
34235;BME280;20500;49.856;20.290;2022-12-18T12:53:29;100906.02;;;-1.81;73.83
34235;BME280;20500;49.856;20.290;2022-12-18T12:56:38;100911.88;;;-1.96;73.93
34235;BME280;20500;49.856;20.290;2022-12-18T12:59:49;100917.98;;;-2.02;73.96
34235;BME280;20500;49.856;20.290;2022-12-18T13:03:02;100921.71;;;-2.12;73.94
34235;BME280;20500;49.856;20.290;2022-12-18T13:06:14;100922.92;;;-2.26;73.78
34235;BME280;20500;49.856;20.290;2022-12-18T13:09:20;100931.08;;;-2.39;73.72
34235;BME280;20500;49.856;20.290;2022-12-18T13:12:23;100937.59;;;-2.47;73.86
34235;BME280;20500;49.856;20.290;2022-12-18T13:15:49;100943.52;;;-2.55;73.83
34235;BME280;20500;49.856;20.290;2022-12-18T13:19:22;100946.00;;;-2.64;73.78
34235;BME280;20500;49.856;20.290;2022-12-18T13:22:32;100947.39;;;-2.69;73.93
34235;BME280;20500;49.856;20.290;2022-12-18T13:25:37;100948.14;;;-2.75;73.68
34235;BME280;20500;49.856;20.290;2022-12-18T13:28:55;100949.22;;;-2.81;73.63
34235;BME280;20500;49.856;20.290;2022-12-18T13:32:02;100948.34;;;-2.86;73.58
34235;BME280;20500;49.856;20.290;2022-12-18T13:35:38;100951.13;;;-2.90;73.68
34235;BME280;20500;49.856;20.290;2022-12-18T13:38:42;100961.27;;;-2.91;73.78
34235;BME280;20500;49.856;20.290;2022-12-18T13:41:47;100964.70;;;-2.93;73.69
34235;BME280;20500;49.856;20.290;2022-12-18T13:44:51;100963.84;;;-2.98;73.56
34235;BME280;20500;49.856;20.290;2022-12-18T13:47:54;100970.94;;;-3.09;73.44
34235;BME280;20500;49.856;20.290;2022-12-18T13:51:03;100966.20;;;-3.17;73.51
34235;BME280;20500;49.856;20.290;2022-12-18T13:54:17;100962.21;;;-3.25;73.33
34235;BME280;20500;49.856;20.290;2022-12-18T13:57:28;100964.93;;;-3.33;73.38
34235;BME280;20500;49.856;20.290;2022-12-18T14:00:32;100969.83;;;-3.36;73.40
34235;BME280;20500;49.856;20.290;2022-12-18T14:03:34;100977.58;;;-3.40;73.51
34235;BME280;20500;49.856;20.290;2022-12-18T14:06:38;100985.54;;;-3.45;73.57
34235;BME280;20500;49.856;20.290;2022-12-18T14:09:43;100985.79;;;-3.53;73.39
34235;BME280;20500;49.856;20.290;2022-12-18T14:12:50;100989.49;;;-3.59;73.44
34235;BME280;20500;49.856;20.290;2022-12-18T14:16:05;100989.20;;;-3.61;73.47
34235;BME280;20500;49.856;20.290;2022-12-18T14:19:12;100993.04;;;-3.64;73.49
34235;BME280;20500;49.856;20.290;2022-12-18T14:22:20;100999.18;;;-3.68;73.55
34235;BME280;20500;49.856;20.290;2022-12-18T14:25:25;101001.82;;;-3.67;73.72
34235;BME280;20500;49.856;20.290;2022-12-18T14:28:28;101001.77;;;-3.66;73.69
34235;BME280;20500;49.856;20.290;2022-12-18T14:31:31;101002.47;;;-3.71;73.43
34235;BME280;20500;49.856;20.290;2022-12-18T14:34:34;101009.09;;;-3.79;73.43
34235;BME280;20500;49.856;20.290;2022-12-18T14:37:37;101012.72;;;-3.88;73.38
34235;BME280;20500;49.856;20.290;2022-12-18T14:40:40;101015.82;;;-3.98;73.41
34235;BME280;20500;49.856;20.290;2022-12-18T14:43:45;101012.37;;;-4.08;73.10
34235;BME280;20500;49.856;20.290;2022-12-18T14:46:50;101010.39;;;-4.20;73.20
34235;BME280;20500;49.856;20.290;2022-12-18T14:49:53;101009.95;;;-4.30;73.26
34235;BME280;20500;49.856;20.290;2022-12-18T14:52:56;101015.60;;;-4.42;73.16
34235;BME280;20500;49.856;20.290;2022-12-18T14:55:58;101018.63;;;-4.57;73.13
34235;BME280;20500;49.856;20.290;2022-12-18T14:59:04;101017.26;;;-4.73;72.78
34235;BME280;20500;49.856;20.290;2022-12-18T15:02:15;101022.80;;;-4.90;73.05
34235;BME280;20500;49.856;20.290;2022-12-18T15:05:27;101019.13;;;-4.99;73.27
34235;BME280;20500;49.856;20.290;2022-12-18T15:08:35;101019.49;;;-5.08;73.13
34235;BME280;20500;49.856;20.290;2022-12-18T15:11:45;101020.38;;;-5.23;72.69
34235;BME280;20500;49.856;20.290;2022-12-18T15:14:48;101017.04;;;-5.39;72.94
34235;BME280;20500;49.856;20.290;2022-12-18T15:17:58;101018.27;;;-5.47;72.94
34235;BME280;20500;49.856;20.290;2022-12-18T15:21:08;101021.48;;;-5.57;72.81
34235;BME280;20500;49.856;20.290;2022-12-18T15:24:18;101020.23;;;-5.73;72.63
34235;BME280;20500;49.856;20.290;2022-12-18T15:27:29;101022.30;;;-5.88;72.78
34235;BME280;20500;49.856;20.290;2022-12-18T15:30:32;101020.25;;;-5.91;72.92
34235;BME280;20500;49.856;20.290;2022-12-18T15:33:36;101027.09;;;-5.96;72.74
34235;BME280;20500;49.856;20.290;2022-12-18T15:36:41;101031.48;;;-6.12;72.25
34235;BME280;20500;49.856;20.290;2022-12-18T15:39:44;101037.21;;;-6.26;72.60
34235;BME280;20500;49.856;20.290;2022-12-18T15:42:47;101041.92;;;-6.33;72.49
34235;BME280;20500;49.856;20.290;2022-12-18T15:46:12;101046.77;;;-6.47;72.44
34235;BME280;20500;49.856;20.290;2022-12-18T15:49:15;101046.20;;;-6.66;72.31
34235;BME280;20500;49.856;20.290;2022-12-18T15:52:18;101054.16;;;-6.77;72.53
34235;BME280;20500;49.856;20.290;2022-12-18T15:55:28;101065.20;;;-6.84;72.59
34235;BME280;20500;49.856;20.290;2022-12-18T15:58:49;101067.96;;;-6.92;72.62
34235;BME280;20500;49.856;20.290;2022-12-18T16:01:53;101072.14;;;-6.99;72.59